createdAt,value
2023-03-03T00:00:07.100Z,87.50
2023-03-03T00:02:19.888Z,89.60
2023-03-03T00:04:22.812Z,90.00
2023-03-03T00:06:27.195Z,90.30
2023-03-03T00:08:30.024Z,90.90
2023-03-03T00:10:33.437Z,91.00
2023-03-03T00:12:38.670Z,90.30
2023-03-03T00:14:41.826Z,90.60
2023-03-03T00:16:44.627Z,90.20
2023-03-03T00:18:49.060Z,90.10
2023-03-03T00:20:55.230Z,90.30
2023-03-03T00:23:05.410Z,90.00
2023-03-03T00:25:29.117Z,90.30
2023-03-03T00:27:35.992Z,90.40
2023-03-03T00:29:42.398Z,90.30
2023-03-03T00:31:45.273Z,90.50
2023-03-03T00:33:54.881Z,90.70
2023-03-03T00:35:58.177Z,91.10
2023-03-03T00:38:11.275Z,91.00
2023-03-03T00:40:25.426Z,91.10
2023-03-03T00:42:28.845Z,91.30
2023-03-03T00:44:42.406Z,91.40
2023-03-03T00:46:45.315Z,91.10
2023-03-03T00:48:49.209Z,91.00
2023-03-03T00:50:53.329Z,90.70
2023-03-03T00:53:04.355Z,90.50
2023-03-03T00:55:08.586Z,90.60
2023-03-03T00:57:12.601Z,90.70
2023-03-03T00:59:15.435Z,90.70
2023-03-03T01:01:18.917Z,90.60
2023-03-03T01:03:24.677Z,90.70
2023-03-03T01:05:27.503Z,90.70
2023-03-03T01:07:30.384Z,90.60
2023-03-03T01:09:34.624Z,90.70
2023-03-03T01:11:37.604Z,90.70
2023-03-03T01:13:41.853Z,90.70
2023-03-03T01:15:45.313Z,90.70
2023-03-03T01:17:48.154Z,90.70
2023-03-03T01:19:51.084Z,90.90
2023-03-03T01:21:54.102Z,90.80
2023-03-03T01:23:56.876Z,90.70
2023-03-03T01:26:01.189Z,90.40
2023-03-03T01:28:04.431Z,90.20
2023-03-03T01:30:09.933Z,89.90
2023-03-03T01:32:12.811Z,89.70
2023-03-03T01:34:15.805Z,89.20
2023-03-03T01:36:24.327Z,88.60
2023-03-03T01:38:27.406Z,88.30
2023-03-03T01:40:32.209Z,88.30
2023-03-03T01:42:36.394Z,87.10
2023-03-03T01:44:39.216Z,87.50
2023-03-03T01:46:55.218Z,87.10
2023-03-03T01:49:03.354Z,87.50
2023-03-03T01:51:15.406Z,87.30
2023-03-03T01:53:21.380Z,86.60
2023-03-03T01:55:28.500Z,86.80
2023-03-03T01:57:35.004Z,87.80
2023-03-03T01:59:45.073Z,88.30
2023-03-03T02:01:49.732Z,87.50
2023-03-03T02:03:53.675Z,88.30
2023-03-03T02:06:01.724Z,88.10
2023-03-03T02:08:05.079Z,89.20
2023-03-03T02:10:11.622Z,89.10
2023-03-03T02:12:19.331Z,88.60
2023-03-03T02:14:22.148Z,88.20
2023-03-03T02:16:26.590Z,87.50
2023-03-03T02:18:30.138Z,87.10
2023-03-03T02:20:51.776Z,86.80
2023-03-03T02:22:59.495Z,86.60
2023-03-03T02:25:06.643Z,86.80
2023-03-03T02:27:10.833Z,86.60
2023-03-03T02:29:13.830Z,86.20
2023-03-03T02:31:20.048Z,86.10
2023-03-03T02:33:22.965Z,86.30
2023-03-03T02:35:32.890Z,86.10
2023-03-03T02:37:36.149Z,86.20
2023-03-03T02:39:38.923Z,85.80
2023-03-03T02:41:46.709Z,85.80
2023-03-03T02:43:56.426Z,85.50
2023-03-03T02:45:59.249Z,86.00
2023-03-03T02:48:02.068Z,86.50
2023-03-03T02:50:05.355Z,86.60
2023-03-03T02:52:10.660Z,87.00
2023-03-03T02:54:15.409Z,86.90
2023-03-03T02:56:18.248Z,87.00
2023-03-03T02:58:21.240Z,86.80
2023-03-03T03:00:25.422Z,86.50
2023-03-03T03:02:28.279Z,86.90
2023-03-03T03:04:31.228Z,85.90
2023-03-03T03:06:34.147Z,86.20
2023-03-03T03:08:36.982Z,86.20
2023-03-03T03:10:39.768Z,85.80
2023-03-03T03:12:42.752Z,86.50
2023-03-03T03:14:45.763Z,86.30
2023-03-03T03:16:50.346Z,86.50
2023-03-03T03:18:53.187Z,87.10
2023-03-03T03:20:56.252Z,87.40
2023-03-03T03:22:59.100Z,87.80
2023-03-03T03:25:01.957Z,87.50
2023-03-03T03:27:05.105Z,87.70
2023-03-03T03:29:08.381Z,87.30
2023-03-03T03:31:11.524Z,88.30
2023-03-03T03:33:15.682Z,88.50
2023-03-03T03:35:18.776Z,88.20
2023-03-03T03:37:21.594Z,87.50
2023-03-03T03:39:24.420Z,86.90
2023-03-03T03:41:27.199Z,86.80
2023-03-03T03:43:30.038Z,86.50
2023-03-03T03:45:33.391Z,86.20
2023-03-03T03:47:36.287Z,86.50
2023-03-03T03:49:40.757Z,86.10
2023-03-03T03:51:43.542Z,86.10
2023-03-03T03:53:46.642Z,86.10
2023-03-03T03:55:49.495Z,86.00
2023-03-03T03:57:52.273Z,85.80
2023-03-03T03:59:55.298Z,86.00
2023-03-03T04:01:58.123Z,86.10
2023-03-03T04:04:00.970Z,86.40
2023-03-03T04:06:05.308Z,86.10
2023-03-03T04:08:08.510Z,86.40
2023-03-03T04:10:12.534Z,86.60
2023-03-03T04:12:15.333Z,86.50
2023-03-03T04:14:18.125Z,86.40
2023-03-03T04:16:20.975Z,87.00
2023-03-03T04:18:23.825Z,87.50
2023-03-03T04:20:26.841Z,88.90
2023-03-03T04:22:33.932Z,89.80
2023-03-03T04:24:36.747Z,90.10
2023-03-03T04:26:39.724Z,90.10
2023-03-03T04:28:42.646Z,90.10
2023-03-03T04:30:45.892Z,90.00
2023-03-03T04:32:49.698Z,90.00
2023-03-03T04:34:58.610Z,90.30
2023-03-03T04:37:09.741Z,90.50
2023-03-03T04:39:14.047Z,90.50
2023-03-03T04:41:16.980Z,90.80
2023-03-03T04:43:19.841Z,91.00
2023-03-03T04:45:22.668Z,91.10
2023-03-03T04:47:25.893Z,91.20
2023-03-03T04:49:28.872Z,91.10
2023-03-03T04:51:31.677Z,91.00
2023-03-03T04:53:34.488Z,91.50
2023-03-03T04:55:39.734Z,91.20
2023-03-03T04:57:42.549Z,91.20
2023-03-03T04:59:45.441Z,91.10
2023-03-03T05:01:48.961Z,91.20
2023-03-03T05:03:51.730Z,92.20
2023-03-03T05:05:55.107Z,92.30
2023-03-03T05:07:57.882Z,92.30
2023-03-03T05:10:00.749Z,92.00
2023-03-03T05:12:05.383Z,92.20
2023-03-03T05:14:08.709Z,92.10
2023-03-03T05:16:11.729Z,92.10
2023-03-03T05:18:14.526Z,92.10
2023-03-03T05:20:18.566Z,91.80
2023-03-03T05:22:21.366Z,92.00
2023-03-03T05:24:24.152Z,91.90
2023-03-03T05:26:27.065Z,91.80
2023-03-03T05:28:31.375Z,91.80
2023-03-03T05:30:34.224Z,91.70
2023-03-03T05:32:37.267Z,91.70
2023-03-03T05:34:40.264Z,91.60
2023-03-03T05:36:43.081Z,91.20
2023-03-03T05:38:45.868Z,90.20
2023-03-03T05:40:48.888Z,90.60
2023-03-03T05:42:51.851Z,90.80
2023-03-03T05:44:55.960Z,90.80
2023-03-03T05:46:59.246Z,91.40
2023-03-03T05:49:02.144Z,91.20
2023-03-03T05:51:05.540Z,91.40
2023-03-03T05:53:08.438Z,91.50
2023-03-03T05:55:12.373Z,91.50
2023-03-03T05:57:15.511Z,91.60
2023-03-03T05:59:19.117Z,92.10
2023-03-03T06:01:23.463Z,92.50
2023-03-03T06:03:26.361Z,92.60
2023-03-03T06:05:29.268Z,92.60
2023-03-03T06:07:32.052Z,92.40
2023-03-03T06:09:34.932Z,92.80
2023-03-03T06:11:38.384Z,93.20
2023-03-03T06:13:42.713Z,93.30
2023-03-03T06:15:45.685Z,93.20
2023-03-03T06:17:50.082Z,93.30
2023-03-03T06:19:52.976Z,93.30
2023-03-03T06:21:55.970Z,93.30
2023-03-03T06:23:58.842Z,93.00
2023-03-03T06:26:01.697Z,93.10
2023-03-03T06:28:04.786Z,93.10
2023-03-03T06:30:08.809Z,93.40
2023-03-03T06:32:12.070Z,93.50
2023-03-03T06:34:16.345Z,93.30
2023-03-03T06:36:19.368Z,93.00
2023-03-03T06:38:22.387Z,92.80
2023-03-03T06:40:25.322Z,92.90
2023-03-03T06:42:28.181Z,92.70
2023-03-03T06:44:31.030Z,92.40
2023-03-03T06:46:33.834Z,92.00
2023-03-03T06:48:36.737Z,91.80
2023-03-03T06:50:40.895Z,91.80
2023-03-03T06:52:43.732Z,91.70
2023-03-03T06:54:46.575Z,91.00
2023-03-03T06:56:54.525Z,91.00
2023-03-03T06:58:59.213Z,90.20
2023-03-03T07:01:03.134Z,90.90
2023-03-03T07:03:12.629Z,91.00
2023-03-03T07:05:18.599Z,90.80
2023-03-03T07:07:25.568Z,90.90
2023-03-03T07:09:30.829Z,90.80
2023-03-03T07:11:36.433Z,91.10
2023-03-03T07:13:43.919Z,90.80
2023-03-03T07:15:47.392Z,90.60
2023-03-03T07:17:53.625Z,88.60
2023-03-03T07:19:56.402Z,88.60
2023-03-03T07:21:59.608Z,89.70
2023-03-03T07:24:26.973Z,90.40
2023-03-03T07:26:32.913Z,91.00
2023-03-03T07:28:35.903Z,91.00
2023-03-03T07:30:38.932Z,91.20
2023-03-03T07:32:44.207Z,90.90
2023-03-03T07:34:49.189Z,90.80
2023-03-03T07:36:55.325Z,90.50
2023-03-03T07:39:01.056Z,90.20
2023-03-03T07:41:11.267Z,89.70
2023-03-03T07:43:30.695Z,90.00
2023-03-03T07:45:38.697Z,90.10
2023-03-03T07:47:41.473Z,89.80
2023-03-03T07:49:44.405Z,90.60
2023-03-03T07:51:47.265Z,90.30
2023-03-03T07:53:50.439Z,90.50
2023-03-03T07:55:53.521Z,89.40
2023-03-03T07:58:00.225Z,90.40
2023-03-03T08:00:25.442Z,90.40
2023-03-03T08:02:38.060Z,90.50
2023-03-03T08:04:43.564Z,90.70
2023-03-03T08:06:49.986Z,91.00
2023-03-03T08:08:53.698Z,90.40
2023-03-03T08:10:58.375Z,89.40
2023-03-03T08:13:10.683Z,90.30
2023-03-03T08:15:22.581Z,90.00
2023-03-03T08:17:30.589Z,90.00
2023-03-03T08:19:35.057Z,90.30
2023-03-03T08:21:37.972Z,88.70
2023-03-03T08:23:40.979Z,88.90
2023-03-03T08:25:44.388Z,89.10
2023-03-03T08:27:47.411Z,87.60
2023-03-03T08:29:51.657Z,89.00
2023-03-03T08:31:54.801Z,89.20
2023-03-03T08:33:58.782Z,89.30
2023-03-03T08:36:02.068Z,89.00
2023-03-03T08:38:06.170Z,86.90
2023-03-03T08:40:10.464Z,88.10
2023-03-03T08:42:15.858Z,88.90
2023-03-03T08:44:19.647Z,88.90
2023-03-03T08:46:23.958Z,88.80
2023-03-03T08:48:28.039Z,88.70
2023-03-03T08:50:31.274Z,88.10
2023-03-03T08:52:34.365Z,87.80
2023-03-03T08:54:37.493Z,87.40
2023-03-03T08:56:40.447Z,87.10
2023-03-03T08:59:01.168Z,86.80
2023-03-03T09:01:05.558Z,87.70
2023-03-03T09:03:09.847Z,86.20
2023-03-03T09:05:13.559Z,86.00
2023-03-03T09:07:17.851Z,86.70
2023-03-03T09:09:20.705Z,87.70
2023-03-03T09:11:27.627Z,88.10
2023-03-03T09:13:31.609Z,88.90
2023-03-03T09:15:36.111Z,88.60
2023-03-03T09:17:38.989Z,88.50
2023-03-03T09:19:43.689Z,88.90
2023-03-03T09:21:46.549Z,88.30
2023-03-03T09:23:55.043Z,88.00
2023-03-03T09:25:58.599Z,89.30
2023-03-03T09:28:02.172Z,89.80
2023-03-03T09:30:17.510Z,87.70
2023-03-03T09:32:31.159Z,88.00
2023-03-03T09:34:41.376Z,88.00
2023-03-03T09:36:45.550Z,88.30
2023-03-03T09:38:49.649Z,87.70
2023-03-03T09:41:07.486Z,88.90
2023-03-03T09:43:14.450Z,88.70
2023-03-03T09:45:34.774Z,89.00
2023-03-03T09:47:48.049Z,88.00
2023-03-03T09:50:02.788Z,88.10
2023-03-03T09:52:22.422Z,88.50
2023-03-03T09:54:35.478Z,87.60
2023-03-03T09:56:42.768Z,87.40
2023-03-03T09:58:57.790Z,87.20
2023-03-03T10:01:15.853Z,86.00
2023-03-03T10:03:57.352Z,86.40
2023-03-03T10:06:04.437Z,86.50
2023-03-03T10:08:31.210Z,86.70
2023-03-03T10:10:46.912Z,85.60
2023-03-03T10:13:01.110Z,86.10
2023-03-03T10:15:22.952Z,85.10
2023-03-03T10:17:37.740Z,86.60
2023-03-03T10:19:42.620Z,87.60
2023-03-03T10:21:52.131Z,87.80
2023-03-03T10:24:00.594Z,87.00
2023-03-03T10:26:18.126Z,86.40
2023-03-03T10:28:57.192Z,85.80
2023-03-03T10:31:15.557Z,88.50
2023-03-03T10:33:27.922Z,87.70
2023-03-03T10:36:00.924Z,88.00
2023-03-03T10:38:20.295Z,87.60
2023-03-03T10:40:32.918Z,87.20
2023-03-03T10:42:52.236Z,87.20
2023-03-03T10:45:20.666Z,86.80
2023-03-03T10:47:46.346Z,87.80
2023-03-03T10:49:59.313Z,88.10
2023-03-03T10:52:41.076Z,86.60
2023-03-03T10:55:04.852Z,86.20
2023-03-03T10:57:19.983Z,86.80
2023-03-03T10:59:38.853Z,86.20
2023-03-03T11:01:50.509Z,84.80
2023-03-03T11:04:08.974Z,84.10
2023-03-03T11:06:19.552Z,85.00
2023-03-03T11:08:29.407Z,85.30
2023-03-03T11:10:48.157Z,85.80
2023-03-03T11:13:08.945Z,85.20
2023-03-03T11:15:38.870Z,86.00
2023-03-03T11:17:56.170Z,87.10
2023-03-03T11:20:06.834Z,86.00
2023-03-03T11:22:21.105Z,84.80
2023-03-03T11:24:56.670Z,84.90
2023-03-03T11:27:25.048Z,85.90
2023-03-03T11:29:51.083Z,85.50
2023-03-03T11:31:57.972Z,85.20
2023-03-03T11:34:08.948Z,84.10
2023-03-03T11:36:17.482Z,84.80
2023-03-03T11:38:41.267Z,84.60
2023-03-03T11:40:50.153Z,84.50
2023-03-03T11:43:03.037Z,83.80
2023-03-03T11:45:16.878Z,83.80
2023-03-03T11:47:26.652Z,84.20
2023-03-03T11:49:37.427Z,85.30
2023-03-03T11:51:50.023Z,85.50
2023-03-03T11:54:00.563Z,84.80
2023-03-03T11:56:11.532Z,84.30
2023-03-03T11:58:20.408Z,84.10
2023-03-03T12:00:32.351Z,85.40
2023-03-03T12:02:52.417Z,84.20
2023-03-03T12:04:58.349Z,84.30
2023-03-03T12:07:19.439Z,85.10
2023-03-03T12:09:34.711Z,85.00
2023-03-03T12:11:46.349Z,85.10
2023-03-03T12:13:57.779Z,84.90
2023-03-03T12:16:13.741Z,84.90
2023-03-03T12:18:36.601Z,84.70
2023-03-03T12:20:46.465Z,85.80
2023-03-03T12:23:06.441Z,85.30
2023-03-03T12:25:36.463Z,84.80
2023-03-03T12:27:46.846Z,85.40
2023-03-03T12:29:57.322Z,85.30
2023-03-03T12:32:15.367Z,85.00
2023-03-03T12:34:25.676Z,84.80
2023-03-03T12:37:02.996Z,86.00
2023-03-03T12:39:11.939Z,86.60
2023-03-03T12:41:24.006Z,85.60
2023-03-03T12:43:45.048Z,86.20
2023-03-03T12:45:57.398Z,85.90
2023-03-03T12:48:09.931Z,86.50
2023-03-03T12:50:26.446Z,86.90
2023-03-03T12:52:38.645Z,87.70
2023-03-03T12:54:58.892Z,88.10
2023-03-03T12:57:07.673Z,87.10
2023-03-03T12:59:18.238Z,87.30
2023-03-03T13:01:35.966Z,87.70
2023-03-03T13:03:55.379Z,88.40
2023-03-03T13:06:08.196Z,88.40
2023-03-03T13:08:34.726Z,88.10
2023-03-03T13:10:45.785Z,87.80
2023-03-03T13:12:53.208Z,88.50
2023-03-03T13:15:01.379Z,88.90
2023-03-03T13:17:16.197Z,89.20
2023-03-03T13:19:25.361Z,89.10
2023-03-03T13:21:33.590Z,89.70
2023-03-03T13:23:44.569Z,89.10
2023-03-03T13:25:52.450Z,88.70
2023-03-03T13:28:02.074Z,87.50
2023-03-03T13:30:16.961Z,87.00
2023-03-03T13:32:23.285Z,87.60
2023-03-03T13:34:38.363Z,88.70
2023-03-03T13:36:50.927Z,88.70
2023-03-03T13:38:58.658Z,87.90
2023-03-03T13:41:10.860Z,87.90
2023-03-03T13:43:18.943Z,87.10
2023-03-03T13:45:28.266Z,87.50
2023-03-03T13:47:40.849Z,87.60
2023-03-03T13:50:12.986Z,86.70
2023-03-03T13:52:22.487Z,85.80
2023-03-03T13:54:41.888Z,86.60
2023-03-03T13:56:59.525Z,87.20
2023-03-03T13:59:08.830Z,87.30
2023-03-03T14:01:19.252Z,87.80
2023-03-03T14:03:49.770Z,87.10
2023-03-03T14:05:58.983Z,87.70
2023-03-03T14:08:09.357Z,86.30
2023-03-03T14:10:19.333Z,87.70
2023-03-03T14:12:30.745Z,87.60
2023-03-03T14:14:47.121Z,88.00
2023-03-03T14:16:53.752Z,88.00
2023-03-03T14:18:59.119Z,87.10
2023-03-03T14:21:10.466Z,87.90
2023-03-03T14:23:19.933Z,87.10
2023-03-03T14:25:23.380Z,87.10
2023-03-03T14:27:28.285Z,86.90
2023-03-03T14:29:34.071Z,86.00
2023-03-03T14:31:43.441Z,86.40
2023-03-03T14:33:58.183Z,87.30
2023-03-03T14:36:11.227Z,87.00
2023-03-03T14:38:15.869Z,87.30
2023-03-03T14:40:23.105Z,86.30
2023-03-03T14:42:36.561Z,86.60
2023-03-03T14:44:54.919Z,86.40
2023-03-03T14:47:20.020Z,86.60
2023-03-03T14:49:32.731Z,86.50
2023-03-03T14:51:43.493Z,86.30
2023-03-03T14:53:50.167Z,85.50
2023-03-03T14:55:54.924Z,86.10
2023-03-03T14:57:59.881Z,86.10
2023-03-03T15:00:10.898Z,85.90
2023-03-03T15:02:31.322Z,86.30
2023-03-03T15:04:35.220Z,86.20
2023-03-03T15:06:45.050Z,85.80
2023-03-03T15:08:48.032Z,86.30
2023-03-03T15:10:51.096Z,86.40
2023-03-03T15:12:53.998Z,86.50
2023-03-03T15:15:11.425Z,86.50
2023-03-03T15:17:29.382Z,85.50
2023-03-03T15:19:44.765Z,86.00
2023-03-03T15:22:00.409Z,85.40
2023-03-03T15:24:08.358Z,85.60
2023-03-03T15:26:15.952Z,85.60
2023-03-03T15:28:28.673Z,85.50
2023-03-03T15:30:38.014Z,86.50
2023-03-03T15:32:48.029Z,87.40
2023-03-03T15:35:00.232Z,88.30
2023-03-03T15:37:19.092Z,88.00
2023-03-03T15:39:29.018Z,87.90
2023-03-03T15:41:41.923Z,86.50
2023-03-03T15:43:55.330Z,86.40
2023-03-03T15:46:08.007Z,86.20
2023-03-03T15:48:25.674Z,86.80
2023-03-03T15:50:39.684Z,87.60
2023-03-03T15:52:57.186Z,88.20
2023-03-03T15:55:14.475Z,87.90
2023-03-03T15:57:27.293Z,88.00
2023-03-03T15:59:57.402Z,87.60
2023-03-03T16:02:14.900Z,88.30
2023-03-03T16:04:20.826Z,88.50
2023-03-03T16:06:29.418Z,88.00
2023-03-03T16:08:45.175Z,87.90
2023-03-03T16:10:56.662Z,88.00
2023-03-03T16:13:12.122Z,88.70
2023-03-03T16:15:28.916Z,89.20
2023-03-03T16:17:40.678Z,89.70
2023-03-03T16:19:50.311Z,90.00
2023-03-03T16:22:16.193Z,90.20
2023-03-03T16:24:38.276Z,90.10
2023-03-03T16:26:49.638Z,89.30
2023-03-03T16:29:12.449Z,89.60
2023-03-03T16:31:21.634Z,90.10
2023-03-03T16:33:33.201Z,90.20
2023-03-03T16:35:41.186Z,90.40
2023-03-03T16:37:54.886Z,90.70
2023-03-03T16:40:10.455Z,90.80
2023-03-03T16:42:23.642Z,90.90
2023-03-03T16:44:39.328Z,90.50
2023-03-03T16:46:45.714Z,90.30
2023-03-03T16:48:54.570Z,90.50
2023-03-03T16:51:13.414Z,90.40
2023-03-03T16:53:27.443Z,90.60
2023-03-03T16:55:36.094Z,90.60
2023-03-03T16:57:51.459Z,90.60
2023-03-03T17:00:04.408Z,90.40
2023-03-03T17:02:30.997Z,90.40
2023-03-03T17:04:43.949Z,90.40
2023-03-03T17:06:50.296Z,90.70
2023-03-03T17:09:20.444Z,90.70
2023-03-03T17:11:47.202Z,90.70
2023-03-03T17:14:14.130Z,90.90
2023-03-03T17:16:23.604Z,90.80
2023-03-03T17:18:38.901Z,90.50
2023-03-03T17:20:51.411Z,90.40
2023-03-03T17:23:07.367Z,90.60
2023-03-03T17:25:19.630Z,90.30
2023-03-03T17:27:32.927Z,90.40
2023-03-03T17:29:46.781Z,90.80
2023-03-03T17:31:57.186Z,90.50
2023-03-03T17:34:16.108Z,90.30
2023-03-03T17:36:43.298Z,90.60
2023-03-03T17:39:01.321Z,90.60
2023-03-03T17:41:08.568Z,90.70
2023-03-03T17:43:18.736Z,90.60
2023-03-03T17:45:24.896Z,90.40
2023-03-03T17:47:42.204Z,90.40
2023-03-03T17:50:03.157Z,90.10
2023-03-03T17:52:44.092Z,90.30
2023-03-03T17:55:06.506Z,90.30
2023-03-03T17:57:26.233Z,90.20
2023-03-03T17:59:47.360Z,90.50
2023-03-03T18:02:13.898Z,90.60
2023-03-03T18:04:45.444Z,90.60
2023-03-03T18:07:11.576Z,90.80
2023-03-03T18:09:36.955Z,90.30
2023-03-03T18:12:00.235Z,90.20
2023-03-03T18:14:20.121Z,90.40
2023-03-03T18:16:40.214Z,90.30
2023-03-03T18:18:57.272Z,90.10
2023-03-03T18:21:05.703Z,90.50
2023-03-03T18:23:34.046Z,90.50
2023-03-03T18:25:57.151Z,90.60
2023-03-03T18:28:20.627Z,90.70
2023-03-03T18:30:27.067Z,90.60
2023-03-03T18:32:41.988Z,90.70
2023-03-03T18:34:44.906Z,91.00
2023-03-03T18:36:56.769Z,91.30
2023-03-03T18:39:01.523Z,91.20
2023-03-03T18:41:05.914Z,91.30
2023-03-03T18:43:50.095Z,91.10
2023-03-03T18:45:53.173Z,90.90
2023-03-03T18:48:06.149Z,90.90
2023-03-03T18:50:17.227Z,90.60
2023-03-03T18:52:24.077Z,90.60
2023-03-03T18:54:31.345Z,90.70
2023-03-03T18:56:44.611Z,90.70
2023-03-03T18:58:52.136Z,91.00
2023-03-03T19:00:59.743Z,91.10
2023-03-03T19:03:19.692Z,91.30
2023-03-03T19:05:25.732Z,91.40
2023-03-03T19:07:32.388Z,91.40
2023-03-03T19:09:52.533Z,91.20
2023-03-03T19:11:57.128Z,91.60
2023-03-03T19:14:19.112Z,92.00
2023-03-03T19:16:38.369Z,92.30
2023-03-03T19:19:02.713Z,92.40
2023-03-03T19:21:08.939Z,92.70
2023-03-03T19:23:15.732Z,92.30
2023-03-03T19:25:25.992Z,92.20
2023-03-03T19:27:33.744Z,92.30
2023-03-03T19:30:22.635Z,92.40
2023-03-03T19:32:49.410Z,92.20
2023-03-03T19:35:02.655Z,91.90
2023-03-03T19:37:20.408Z,92.20
2023-03-03T19:39:46.344Z,91.70
2023-03-03T19:42:02.570Z,92.00
2023-03-03T19:44:16.802Z,91.90
2023-03-03T19:46:34.677Z,91.70
2023-03-03T19:48:43.778Z,91.70
2023-03-03T19:50:56.382Z,91.90
2023-03-03T19:53:08.752Z,91.90
2023-03-03T19:55:35.019Z,91.80
2023-03-03T19:57:48.895Z,91.50
2023-03-03T20:00:01.256Z,91.60
2023-03-03T20:02:26.508Z,91.70
2023-03-03T20:04:55.938Z,91.20
2023-03-03T20:07:09.087Z,91.30
2023-03-03T20:09:25.437Z,91.30
2023-03-03T20:11:48.036Z,91.00
2023-03-03T20:13:59.336Z,91.00
2023-03-03T20:16:14.917Z,91.00
2023-03-03T20:18:41.816Z,91.30
2023-03-03T20:20:57.982Z,91.30
2023-03-03T20:23:11.830Z,91.40
2023-03-03T20:25:26.207Z,91.50
2023-03-03T20:27:35.961Z,91.50
2023-03-03T20:30:03.904Z,91.00
2023-03-03T20:32:15.321Z,91.10
2023-03-03T20:34:27.342Z,91.10
2023-03-03T20:36:39.421Z,91.30
2023-03-03T20:38:53.996Z,91.10
2023-03-03T20:41:09.384Z,91.00
2023-03-03T20:43:27.376Z,91.00
2023-03-03T20:45:43.776Z,91.20
2023-03-03T20:47:58.569Z,91.30
2023-03-03T20:50:15.493Z,91.40
2023-03-03T20:52:28.172Z,91.20
2023-03-03T20:54:43.438Z,91.30
2023-03-03T20:56:51.900Z,91.30
2023-03-03T20:59:06.157Z,91.30
2023-03-03T21:01:12.297Z,91.20
2023-03-03T21:03:20.972Z,91.30
2023-03-03T21:05:24.706Z,91.40
2023-03-03T21:07:27.607Z,91.40
2023-03-03T21:09:33.671Z,91.20
2023-03-03T21:11:43.004Z,91.30
2023-03-03T21:13:47.803Z,91.10
2023-03-03T21:15:56.121Z,91.10
2023-03-03T21:18:00.152Z,90.90
2023-03-03T21:20:24.618Z,90.90
2023-03-03T21:22:27.494Z,90.90
2023-03-03T21:24:54.636Z,90.50
2023-03-03T21:26:58.726Z,90.90
2023-03-03T21:29:03.683Z,90.90
2023-03-03T21:31:14.443Z,90.80
2023-03-03T21:33:42.308Z,90.60
2023-03-03T21:35:58.621Z,90.60
2023-03-03T21:38:01.480Z,90.90
2023-03-03T21:40:25.336Z,91.10
2023-03-03T21:42:41.851Z,91.00
2023-03-03T21:44:46.707Z,91.20
2023-03-03T21:46:49.804Z,90.90
2023-03-03T21:48:53.625Z,90.60
2023-03-03T21:50:56.524Z,90.70
2023-03-03T21:52:59.414Z,90.80
2023-03-03T21:55:02.321Z,91.00
2023-03-03T21:57:06.882Z,91.10
2023-03-03T21:59:10.240Z,90.90
2023-03-03T22:01:13.894Z,91.20
2023-03-03T22:03:18.715Z,91.00
2023-03-03T22:05:21.606Z,90.90
2023-03-03T22:07:24.508Z,90.70
2023-03-03T22:09:27.510Z,91.30
2023-03-03T22:11:30.303Z,91.30
2023-03-03T22:13:34.442Z,90.70
2023-03-03T22:15:37.331Z,90.90
2023-03-03T22:17:40.768Z,90.80
2023-03-03T22:19:43.771Z,90.70
2023-03-03T22:21:47.816Z,90.80
2023-03-03T22:23:50.662Z,90.70
2023-03-03T22:25:53.442Z,90.70
2023-03-03T22:27:56.515Z,90.50
2023-03-03T22:30:00.636Z,90.90
2023-03-03T22:32:03.440Z,90.90
2023-03-03T22:34:06.467Z,91.00
2023-03-03T22:36:10.068Z,90.80
2023-03-03T22:38:12.983Z,90.70
2023-03-03T22:40:15.977Z,90.70
2023-03-03T22:42:18.868Z,90.50
2023-03-03T22:44:21.674Z,90.10
2023-03-03T22:46:26.760Z,90.30
2023-03-03T22:48:30.803Z,90.40
2023-03-03T22:50:39.488Z,90.50
2023-03-03T22:52:42.414Z,90.80
2023-03-03T22:54:45.199Z,90.90
2023-03-03T22:56:48.006Z,90.70
2023-03-03T22:58:50.942Z,91.20
2023-03-03T23:00:54.711Z,91.10
2023-03-03T23:02:59.055Z,91.40
2023-03-03T23:05:07.737Z,91.40
2023-03-03T23:07:10.687Z,91.00
2023-03-03T23:09:13.549Z,90.80
2023-03-03T23:11:16.392Z,91.40
2023-03-03T23:13:19.389Z,91.60
2023-03-03T23:15:22.495Z,91.40
2023-03-03T23:17:26.020Z,91.60
2023-03-03T23:19:30.169Z,91.50
2023-03-03T23:21:33.048Z,91.70
2023-03-03T23:23:35.892Z,91.80
2023-03-03T23:25:38.667Z,91.80
2023-03-03T23:27:41.939Z,91.70
2023-03-03T23:29:44.712Z,91.20
2023-03-03T23:31:47.530Z,91.20
2023-03-03T23:33:50.273Z,91.30
2023-03-03T23:35:54.403Z,91.20
2023-03-03T23:37:57.334Z,90.70
2023-03-03T23:40:00.122Z,90.50
2023-03-03T23:42:02.979Z,90.70
2023-03-03T23:44:05.794Z,91.00
2023-03-03T23:46:09.000Z,91.00
2023-03-03T23:48:11.934Z,91.30
2023-03-03T23:50:15.235Z,91.30
2023-03-03T23:52:19.473Z,91.10
2023-03-03T23:54:22.359Z,90.90
2023-03-03T23:56:25.282Z,90.90
2023-03-03T23:58:28.109Z,90.90
